sensor_id;sensor_type;location;lat;lon;timestamp;temperature;humidity
51579;DHT22;47998;53.242;6.386;2023-04-24T00:02:11;10.30;99.90
51579;DHT22;47998;53.242;6.386;2023-04-24T00:04:38;10.30;99.90
51579;DHT22;47998;53.242;6.386;2023-04-24T00:07:07;10.30;99.90
51579;DHT22;47998;53.242;6.386;2023-04-24T00:09:33;10.30;99.90
51579;DHT22;47998;53.242;6.386;2023-04-24T00:11:59;10.30;99.90
51579;DHT22;47998;53.242;6.386;2023-04-24T00:14:25;10.30;99.90
51579;DHT22;47998;53.242;6.386;2023-04-24T00:16:50;10.30;99.90
51579;DHT22;47998;53.242;6.386;2023-04-24T00:19:17;10.20;99.90
51579;DHT22;47998;53.242;6.386;2023-04-24T00:21:42;10.20;99.90
51579;DHT22;47998;53.242;6.386;2023-04-24T00:24:08;10.20;99.90
51579;DHT22;47998;53.242;6.386;2023-04-24T00:26:35;10.20;99.90
51579;DHT22;47998;53.242;6.386;2023-04-24T00:29:00;10.10;99.90
51579;DHT22;47998;53.242;6.386;2023-04-24T00:31:26;10.20;99.90
51579;DHT22;47998;53.242;6.386;2023-04-24T00:33:52;10.20;99.90
51579;DHT22;47998;53.242;6.386;2023-04-24T00:36:18;10.10;99.90
51579;DHT22;47998;53.242;6.386;2023-04-24T00:38:46;10.10;99.90
51579;DHT22;47998;53.242;6.386;2023-04-24T00:41:11;10.20;99.90
51579;DHT22;47998;53.242;6.386;2023-04-24T00:43:38;10.10;99.90
51579;DHT22;47998;53.242;6.386;2023-04-24T00:46:03;10.10;99.90
51579;DHT22;47998;53.242;6.386;2023-04-24T00:48:29;10.10;99.90
51579;DHT22;47998;53.242;6.386;2023-04-24T00:50:56;10.10;99.90
51579;DHT22;47998;53.242;6.386;2023-04-24T00:53:22;10.10;99.90
51579;DHT22;47998;53.242;6.386;2023-04-24T00:55:48;10.10;99.90
51579;DHT22;47998;53.242;6.386;2023-04-24T00:58:14;10.10;99.90
51579;DHT22;47998;53.242;6.386;2023-04-24T01:00:40;10.10;99.90
51579;DHT22;47998;53.242;6.386;2023-04-24T01:03:06;10.10;99.90
51579;DHT22;47998;53.242;6.386;2023-04-24T01:05:33;10.00;99.90
51579;DHT22;47998;53.242;6.386;2023-04-24T01:07:59;9.90;99.90
51579;DHT22;47998;53.242;6.386;2023-04-24T01:10:27;9.80;99.90
51579;DHT22;47998;53.242;6.386;2023-04-24T01:12:55;9.90;99.90
51579;DHT22;47998;53.242;6.386;2023-04-24T01:15:21;9.80;99.90
51579;DHT22;47998;53.242;6.386;2023-04-24T01:17:46;9.80;99.90
51579;DHT22;47998;53.242;6.386;2023-04-24T01:20:12;9.80;99.90
51579;DHT22;47998;53.242;6.386;2023-04-24T01:22:39;9.80;99.90
51579;DHT22;47998;53.242;6.386;2023-04-24T01:25:06;9.70;99.90
51579;DHT22;47998;53.242;6.386;2023-04-24T01:27:32;9.60;99.90
51579;DHT22;47998;53.242;6.386;2023-04-24T01:29:57;9.60;99.90
51579;DHT22;47998;53.242;6.386;2023-04-24T01:32:24;9.60;99.90
51579;DHT22;47998;53.242;6.386;2023-04-24T01:34:50;9.60;99.90
51579;DHT22;47998;53.242;6.386;2023-04-24T01:37:16;9.50;99.90
51579;DHT22;47998;53.242;6.386;2023-04-24T01:39:43;9.50;99.90
51579;DHT22;47998;53.242;6.386;2023-04-24T01:42:09;9.50;99.90
51579;DHT22;47998;53.242;6.386;2023-04-24T01:44:35;9.50;99.90
51579;DHT22;47998;53.242;6.386;2023-04-24T01:47:01;9.60;99.90
51579;DHT22;47998;53.242;6.386;2023-04-24T01:49:27;9.50;99.90
51579;DHT22;47998;53.242;6.386;2023-04-24T01:51:53;9.50;99.90
51579;DHT22;47998;53.242;6.386;2023-04-24T01:54:19;9.50;99.90
51579;DHT22;47998;53.242;6.386;2023-04-24T01:56:45;9.60;99.90
51579;DHT22;47998;53.242;6.386;2023-04-24T01:59:12;9.60;99.90
51579;DHT22;47998;53.242;6.386;2023-04-24T02:01:38;9.50;99.90
51579;DHT22;47998;53.242;6.386;2023-04-24T02:04:05;9.50;99.90
51579;DHT22;47998;53.242;6.386;2023-04-24T02:06:31;9.50;99.90
51579;DHT22;47998;53.242;6.386;2023-04-24T02:08:58;9.60;99.90
51579;DHT22;47998;53.242;6.386;2023-04-24T02:11:24;9.60;99.90
51579;DHT22;47998;53.242;6.386;2023-04-24T02:13:50;9.50;99.90
51579;DHT22;47998;53.242;6.386;2023-04-24T02:16:17;9.60;99.90
51579;DHT22;47998;53.242;6.386;2023-04-24T02:18:43;9.60;99.90
51579;DHT22;47998;53.242;6.386;2023-04-24T02:21:09;9.50;99.90
51579;DHT22;47998;53.242;6.386;2023-04-24T02:23:35;9.50;99.90
51579;DHT22;47998;53.242;6.386;2023-04-24T02:26:01;9.60;99.90
51579;DHT22;47998;53.242;6.386;2023-04-24T02:28:27;9.60;99.90
51579;DHT22;47998;53.242;6.386;2023-04-24T02:30:52;9.60;99.90
51579;DHT22;47998;53.242;6.386;2023-04-24T02:33:18;9.60;99.90
51579;DHT22;47998;53.242;6.386;2023-04-24T02:35:44;9.60;99.90
51579;DHT22;47998;53.242;6.386;2023-04-24T02:38:09;9.60;99.90
51579;DHT22;47998;53.242;6.386;2023-04-24T02:40:35;9.60;99.90
51579;DHT22;47998;53.242;6.386;2023-04-24T02:43:01;9.60;99.90
51579;DHT22;47998;53.242;6.386;2023-04-24T02:45:26;9.60;99.90
51579;DHT22;47998;53.242;6.386;2023-04-24T02:47:52;9.60;99.90
51579;DHT22;47998;53.242;6.386;2023-04-24T02:50:18;9.60;99.90
51579;DHT22;47998;53.242;6.386;2023-04-24T02:52:43;9.60;99.90
51579;DHT22;47998;53.242;6.386;2023-04-24T02:55:09;9.60;99.90
51579;DHT22;47998;53.242;6.386;2023-04-24T02:57:35;9.70;99.90
51579;DHT22;47998;53.242;6.386;2023-04-24T03:00:01;9.70;99.90
51579;DHT22;47998;53.242;6.386;2023-04-24T03:02:26;9.70;99.90
51579;DHT22;47998;53.242;6.386;2023-04-24T03:04:52;9.70;99.90
51579;DHT22;47998;53.242;6.386;2023-04-24T03:07:18;9.70;99.90
51579;DHT22;47998;53.242;6.386;2023-04-24T03:09:46;9.70;99.90
51579;DHT22;47998;53.242;6.386;2023-04-24T03:12:12;9.70;99.90
51579;DHT22;47998;53.242;6.386;2023-04-24T03:14:38;9.70;99.90
51579;DHT22;47998;53.242;6.386;2023-04-24T03:17:04;9.70;99.90
51579;DHT22;47998;53.242;6.386;2023-04-24T03:19:30;9.80;99.90
51579;DHT22;47998;53.242;6.386;2023-04-24T03:21:55;9.70;99.90
51579;DHT22;47998;53.242;6.386;2023-04-24T03:24:21;9.80;99.90
51579;DHT22;47998;53.242;6.386;2023-04-24T03:26:48;9.80;99.90
51579;DHT22;47998;53.242;6.386;2023-04-24T03:29:13;9.80;99.90
51579;DHT22;47998;53.242;6.386;2023-04-24T03:31:39;9.80;99.90
51579;DHT22;47998;53.242;6.386;2023-04-24T03:34:05;9.80;99.90
51579;DHT22;47998;53.242;6.386;2023-04-24T03:36:30;9.80;99.90
51579;DHT22;47998;53.242;6.386;2023-04-24T03:38:56;9.90;99.90
51579;DHT22;47998;53.242;6.386;2023-04-24T03:41:22;9.90;99.90
51579;DHT22;47998;53.242;6.386;2023-04-24T03:43:48;9.90;99.90
51579;DHT22;47998;53.242;6.386;2023-04-24T03:46:14;9.90;99.90
51579;DHT22;47998;53.242;6.386;2023-04-24T03:48:40;9.90;99.90
51579;DHT22;47998;53.242;6.386;2023-04-24T03:51:06;9.90;99.90
51579;DHT22;47998;53.242;6.386;2023-04-24T03:53:31;9.90;99.90
51579;DHT22;47998;53.242;6.386;2023-04-24T03:55:57;9.90;99.90
51579;DHT22;47998;53.242;6.386;2023-04-24T03:58:23;9.90;99.90
51579;DHT22;47998;53.242;6.386;2023-04-24T04:00:49;9.90;99.90
51579;DHT22;47998;53.242;6.386;2023-04-24T04:03:15;9.90;99.90
51579;DHT22;47998;53.242;6.386;2023-04-24T04:05:41;9.90;99.90
51579;DHT22;47998;53.242;6.386;2023-04-24T04:08:07;9.90;99.90
51579;DHT22;47998;53.242;6.386;2023-04-24T04:10:33;9.90;99.90
51579;DHT22;47998;53.242;6.386;2023-04-24T04:12:58;10.00;99.90
51579;DHT22;47998;53.242;6.386;2023-04-24T04:15:24;9.90;99.90
51579;DHT22;47998;53.242;6.386;2023-04-24T04:17:50;9.90;99.90
51579;DHT22;47998;53.242;6.386;2023-04-24T04:20:15;9.90;99.90
51579;DHT22;47998;53.242;6.386;2023-04-24T04:22:41;9.90;99.90
51579;DHT22;47998;53.242;6.386;2023-04-24T04:25:07;9.90;99.90
51579;DHT22;47998;53.242;6.386;2023-04-24T04:27:34;9.90;99.90
51579;DHT22;47998;53.242;6.386;2023-04-24T04:30:00;9.90;99.90
51579;DHT22;47998;53.242;6.386;2023-04-24T04:32:33;9.90;99.90
51579;DHT22;47998;53.242;6.386;2023-04-24T04:35:03;9.80;99.90
51579;DHT22;47998;53.242;6.386;2023-04-24T04:37:32;9.80;99.90
51579;DHT22;47998;53.242;6.386;2023-04-24T04:39:59;9.80;99.90
51579;DHT22;47998;53.242;6.386;2023-04-24T04:42:28;9.80;99.90
51579;DHT22;47998;53.242;6.386;2023-04-24T04:44:54;9.80;99.90
51579;DHT22;47998;53.242;6.386;2023-04-24T04:47:21;9.70;99.90
51579;DHT22;47998;53.242;6.386;2023-04-24T04:49:48;9.70;99.90
51579;DHT22;47998;53.242;6.386;2023-04-24T04:52:14;9.70;99.90
51579;DHT22;47998;53.242;6.386;2023-04-24T04:54:42;9.70;99.90
51579;DHT22;47998;53.242;6.386;2023-04-24T04:57:07;9.70;99.90
51579;DHT22;47998;53.242;6.386;2023-04-24T04:59:33;9.60;99.90
51579;DHT22;47998;53.242;6.386;2023-04-24T05:01:59;9.60;99.90
51579;DHT22;47998;53.242;6.386;2023-04-24T05:04:25;9.70;99.90
51579;DHT22;47998;53.242;6.386;2023-04-24T05:06:52;9.60;99.90
51579;DHT22;47998;53.242;6.386;2023-04-24T05:09:18;9.60;99.90
51579;DHT22;47998;53.242;6.386;2023-04-24T05:11:44;9.60;99.90
51579;DHT22;47998;53.242;6.386;2023-04-24T05:14:09;9.60;99.90
51579;DHT22;47998;53.242;6.386;2023-04-24T05:16:35;9.60;99.90
51579;DHT22;47998;53.242;6.386;2023-04-24T05:19:02;9.60;99.90
51579;DHT22;47998;53.242;6.386;2023-04-24T05:21:28;9.50;99.90
51579;DHT22;47998;53.242;6.386;2023-04-24T05:23:54;9.60;99.90
51579;DHT22;47998;53.242;6.386;2023-04-24T05:26:20;9.50;99.90
51579;DHT22;47998;53.242;6.386;2023-04-24T05:28:46;9.50;99.90
51579;DHT22;47998;53.242;6.386;2023-04-24T05:31:12;9.50;99.90
51579;DHT22;47998;53.242;6.386;2023-04-24T05:33:37;9.50;99.90
51579;DHT22;47998;53.242;6.386;2023-04-24T05:36:03;9.40;99.90
51579;DHT22;47998;53.242;6.386;2023-04-24T05:38:30;9.40;99.90
51579;DHT22;47998;53.242;6.386;2023-04-24T05:40:56;9.40;99.90
51579;DHT22;47998;53.242;6.386;2023-04-24T05:43:22;9.40;99.90
51579;DHT22;47998;53.242;6.386;2023-04-24T05:45:48;9.40;99.90
51579;DHT22;47998;53.242;6.386;2023-04-24T05:48:13;9.50;99.90
51579;DHT22;47998;53.242;6.386;2023-04-24T05:50:39;9.50;99.90
51579;DHT22;47998;53.242;6.386;2023-04-24T05:53:05;9.50;99.90
51579;DHT22;47998;53.242;6.386;2023-04-24T05:55:32;9.50;99.90
51579;DHT22;47998;53.242;6.386;2023-04-24T05:57:58;9.40;99.90
51579;DHT22;47998;53.242;6.386;2023-04-24T06:00:25;9.50;99.90
51579;DHT22;47998;53.242;6.386;2023-04-24T06:02:51;9.40;99.90
51579;DHT22;47998;53.242;6.386;2023-04-24T06:05:18;9.40;99.90
51579;DHT22;47998;53.242;6.386;2023-04-24T06:07:44;9.50;99.90
51579;DHT22;47998;53.242;6.386;2023-04-24T06:10:10;9.50;99.90
51579;DHT22;47998;53.242;6.386;2023-04-24T06:12:36;9.50;99.90
51579;DHT22;47998;53.242;6.386;2023-04-24T06:15:03;9.60;99.90
51579;DHT22;47998;53.242;6.386;2023-04-24T06:17:29;9.60;99.90
51579;DHT22;47998;53.242;6.386;2023-04-24T06:19:55;9.60;99.90
51579;DHT22;47998;53.242;6.386;2023-04-24T06:22:21;9.50;99.90
51579;DHT22;47998;53.242;6.386;2023-04-24T06:24:47;9.50;99.90
51579;DHT22;47998;53.242;6.386;2023-04-24T06:27:14;9.50;99.90
51579;DHT22;47998;53.242;6.386;2023-04-24T06:29:40;9.60;99.90
51579;DHT22;47998;53.242;6.386;2023-04-24T06:32:05;9.60;99.90
51579;DHT22;47998;53.242;6.386;2023-04-24T06:34:31;9.70;99.90
51579;DHT22;47998;53.242;6.386;2023-04-24T06:36:59;9.70;99.90
51579;DHT22;47998;53.242;6.386;2023-04-24T06:39:25;9.70;99.90
51579;DHT22;47998;53.242;6.386;2023-04-24T06:41:51;9.60;99.90
51579;DHT22;47998;53.242;6.386;2023-04-24T06:44:16;9.60;99.90
51579;DHT22;47998;53.242;6.386;2023-04-24T06:46:42;9.50;99.90
51579;DHT22;47998;53.242;6.386;2023-04-24T06:49:08;9.60;99.90
51579;DHT22;47998;53.242;6.386;2023-04-24T06:51:33;9.50;99.90
51579;DHT22;47998;53.242;6.386;2023-04-24T06:53:59;9.60;99.90
51579;DHT22;47998;53.242;6.386;2023-04-24T06:56:26;9.60;99.90
51579;DHT22;47998;53.242;6.386;2023-04-24T06:58:51;9.60;99.90
51579;DHT22;47998;53.242;6.386;2023-04-24T07:01:17;9.60;99.90
51579;DHT22;47998;53.242;6.386;2023-04-24T07:03:43;9.50;99.90
51579;DHT22;47998;53.242;6.386;2023-04-24T07:06:09;9.60;99.90
51579;DHT22;47998;53.242;6.386;2023-04-24T07:08:36;9.60;99.90
51579;DHT22;47998;53.242;6.386;2023-04-24T07:11:02;9.60;99.90
51579;DHT22;47998;53.242;6.386;2023-04-24T07:13:28;9.50;99.90
51579;DHT22;47998;53.242;6.386;2023-04-24T07:15:54;9.50;99.90
51579;DHT22;47998;53.242;6.386;2023-04-24T07:18:21;9.40;99.90
51579;DHT22;47998;53.242;6.386;2023-04-24T07:20:47;9.30;99.90
51579;DHT22;47998;53.242;6.386;2023-04-24T07:23:16;9.40;99.90
51579;DHT22;47998;53.242;6.386;2023-04-24T07:25:42;9.50;99.90
51579;DHT22;47998;53.242;6.386;2023-04-24T07:28:08;9.50;99.90
51579;DHT22;47998;53.242;6.386;2023-04-24T07:30:34;9.50;99.90
51579;DHT22;47998;53.242;6.386;2023-04-24T07:32:59;9.40;99.90
51579;DHT22;47998;53.242;6.386;2023-04-24T07:35:28;9.40;99.90
51579;DHT22;47998;53.242;6.386;2023-04-24T07:37:54;9.40;99.90
51579;DHT22;47998;53.242;6.386;2023-04-24T07:40:20;9.40;99.90
51579;DHT22;47998;53.242;6.386;2023-04-24T07:42:46;9.40;99.90
51579;DHT22;47998;53.242;6.386;2023-04-24T07:45:14;9.30;99.90
51579;DHT22;47998;53.242;6.386;2023-04-24T07:47:41;9.20;99.90
51579;DHT22;47998;53.242;6.386;2023-04-24T07:50:09;9.20;99.90
51579;DHT22;47998;53.242;6.386;2023-04-24T07:52:35;9.10;99.90
51579;DHT22;47998;53.242;6.386;2023-04-24T07:55:01;9.10;99.90
51579;DHT22;47998;53.242;6.386;2023-04-24T07:57:28;9.10;99.90
51579;DHT22;47998;53.242;6.386;2023-04-24T07:59:54;9.00;99.90
51579;DHT22;47998;53.242;6.386;2023-04-24T08:02:20;9.00;99.90
51579;DHT22;47998;53.242;6.386;2023-04-24T08:04:52;9.00;99.90
51579;DHT22;47998;53.242;6.386;2023-04-24T08:07:19;9.00;99.90
51579;DHT22;47998;53.242;6.386;2023-04-24T08:09:45;8.90;99.90
51579;DHT22;47998;53.242;6.386;2023-04-24T08:12:11;8.90;99.90
51579;DHT22;47998;53.242;6.386;2023-04-24T08:14:36;9.00;99.90
51579;DHT22;47998;53.242;6.386;2023-04-24T08:17:02;8.90;99.90
51579;DHT22;47998;53.242;6.386;2023-04-24T08:19:29;8.90;99.90
51579;DHT22;47998;53.242;6.386;2023-04-24T08:21:54;8.90;99.90
51579;DHT22;47998;53.242;6.386;2023-04-24T08:24:20;8.90;99.90
51579;DHT22;47998;53.242;6.386;2023-04-24T08:26:46;8.80;99.90
51579;DHT22;47998;53.242;6.386;2023-04-24T08:29:16;8.80;99.90
51579;DHT22;47998;53.242;6.386;2023-04-24T08:31:41;8.80;99.90
51579;DHT22;47998;53.242;6.386;2023-04-24T08:34:08;8.80;99.90
51579;DHT22;47998;53.242;6.386;2023-04-24T08:36:34;8.70;99.90
51579;DHT22;47998;53.242;6.386;2023-04-24T08:39:00;8.70;99.90
51579;DHT22;47998;53.242;6.386;2023-04-24T08:41:27;8.70;99.90
51579;DHT22;47998;53.242;6.386;2023-04-24T08:43:53;8.70;99.90
51579;DHT22;47998;53.242;6.386;2023-04-24T08:46:20;8.70;99.90
51579;DHT22;47998;53.242;6.386;2023-04-24T08:48:48;8.70;99.90
51579;DHT22;47998;53.242;6.386;2023-04-24T08:51:15;8.80;99.90
51579;DHT22;47998;53.242;6.386;2023-04-24T08:53:41;8.70;99.90
51579;DHT22;47998;53.242;6.386;2023-04-24T08:56:07;8.70;99.90
51579;DHT22;47998;53.242;6.386;2023-04-24T08:58:33;8.80;99.90
51579;DHT22;47998;53.242;6.386;2023-04-24T09:00:59;8.80;99.90
51579;DHT22;47998;53.242;6.386;2023-04-24T09:03:27;8.80;99.90
51579;DHT22;47998;53.242;6.386;2023-04-24T09:05:55;9.00;99.90
51579;DHT22;47998;53.242;6.386;2023-04-24T09:08:24;8.90;99.90
51579;DHT22;47998;53.242;6.386;2023-04-24T09:10:50;8.90;99.90
51579;DHT22;47998;53.242;6.386;2023-04-24T09:13:16;9.00;99.90
51579;DHT22;47998;53.242;6.386;2023-04-24T09:15:42;9.00;99.90
51579;DHT22;47998;53.242;6.386;2023-04-24T09:18:08;9.10;99.90
51579;DHT22;47998;53.242;6.386;2023-04-24T09:20:34;9.10;99.90
51579;DHT22;47998;53.242;6.386;2023-04-24T09:23:01;9.10;99.90
51579;DHT22;47998;53.242;6.386;2023-04-24T09:25:34;9.00;99.90
51579;DHT22;47998;53.242;6.386;2023-04-24T09:28:04;8.90;99.90
51579;DHT22;47998;53.242;6.386;2023-04-24T09:30:31;8.90;99.90
51579;DHT22;47998;53.242;6.386;2023-04-24T09:33:15;8.80;99.90
51579;DHT22;47998;53.242;6.386;2023-04-24T09:35:51;8.80;99.90
51579;DHT22;47998;53.242;6.386;2023-04-24T09:38:17;8.80;99.90
51579;DHT22;47998;53.242;6.386;2023-04-24T09:40:43;8.90;99.90
51579;DHT22;47998;53.242;6.386;2023-04-24T09:43:12;9.00;99.90
51579;DHT22;47998;53.242;6.386;2023-04-24T09:45:39;9.00;1.40
51579;DHT22;47998;53.242;6.386;2023-04-24T09:48:08;9.20;1.00
51579;DHT22;47998;53.242;6.386;2023-04-24T09:50:35;9.30;99.90
51579;DHT22;47998;53.242;6.386;2023-04-24T09:53:03;9.50;99.90
51579;DHT22;47998;53.242;6.386;2023-04-24T09:55:29;9.70;99.90
51579;DHT22;47998;53.242;6.386;2023-04-24T09:57:58;9.80;99.90
51579;DHT22;47998;53.242;6.386;2023-04-24T10:00:30;9.90;1.00
51579;DHT22;47998;53.242;6.386;2023-04-24T10:03:01;9.90;1.00
51579;DHT22;47998;53.242;6.386;2023-04-24T10:05:34;10.00;99.90
51579;DHT22;47998;53.242;6.386;2023-04-24T10:08:05;10.10;1.00
51579;DHT22;47998;53.242;6.386;2023-04-24T10:10:34;10.10;99.90
51579;DHT22;47998;53.242;6.386;2023-04-24T10:13:00;10.30;1.00
51579;DHT22;47998;53.242;6.386;2023-04-24T10:15:27;10.30;99.90
51579;DHT22;47998;53.242;6.386;2023-04-24T10:17:53;10.40;99.90
51579;DHT22;47998;53.242;6.386;2023-04-24T10:20:23;10.50;1.00
51579;DHT22;47998;53.242;6.386;2023-04-24T10:22:51;10.50;4.90
51579;DHT22;47998;53.242;6.386;2023-04-24T10:25:22;10.40;99.90
51579;DHT22;47998;53.242;6.386;2023-04-24T10:27:50;10.30;99.90
51579;DHT22;47998;53.242;6.386;2023-04-24T10:30:17;10.20;99.90
51579;DHT22;47998;53.242;6.386;2023-04-24T10:32:44;10.20;1.00
51579;DHT22;47998;53.242;6.386;2023-04-24T10:35:12;10.10;95.30
51579;DHT22;47998;53.242;6.386;2023-04-24T10:37:48;10.10;99.90
51579;DHT22;47998;53.242;6.386;2023-04-24T10:40:18;10.00;99.90
51579;DHT22;47998;53.242;6.386;2023-04-24T10:42:47;10.00;99.90
51579;DHT22;47998;53.242;6.386;2023-04-24T10:45:21;10.00;99.90
51579;DHT22;47998;53.242;6.386;2023-04-24T10:47:57;10.00;99.90
51579;DHT22;47998;53.242;6.386;2023-04-24T10:50:26;10.00;99.90
51579;DHT22;47998;53.242;6.386;2023-04-24T10:52:52;10.00;99.90
51579;DHT22;47998;53.242;6.386;2023-04-24T10:55:49;10.00;1.40
51579;DHT22;47998;53.242;6.386;2023-04-24T10:58:16;10.00;99.90
51579;DHT22;47998;53.242;6.386;2023-04-24T11:00:43;9.90;99.90
51579;DHT22;47998;53.242;6.386;2023-04-24T11:03:32;10.00;99.90
51579;DHT22;47998;53.242;6.386;2023-04-24T11:08:32;10.00;99.90
51579;DHT22;47998;53.242;6.386;2023-04-24T11:11:00;10.00;99.90
51579;DHT22;47998;53.242;6.386;2023-04-24T11:22:01;10.10;99.90
51579;DHT22;47998;53.242;6.386;2023-04-24T11:27:19;9.80;45.60
51579;DHT22;47998;53.242;6.386;2023-04-24T11:29:58;9.80;1.00
51579;DHT22;47998;53.242;6.386;2023-04-24T11:32:28;9.90;1.00
51579;DHT22;47998;53.242;6.386;2023-04-24T11:35:07;10.00;99.90
51579;DHT22;47998;53.242;6.386;2023-04-24T11:37:41;10.00;12.00
51579;DHT22;47998;53.242;6.386;2023-04-24T11:40:09;10.20;81.30
51579;DHT22;47998;53.242;6.386;2023-04-24T11:42:36;10.10;99.90
51579;DHT22;47998;53.242;6.386;2023-04-24T11:45:17;10.00;99.90
51579;DHT22;47998;53.242;6.386;2023-04-24T11:47:43;10.00;1.00
51579;DHT22;47998;53.242;6.386;2023-04-24T11:50:14;9.80;1.00
51579;DHT22;47998;53.242;6.386;2023-04-24T11:52:42;9.60;1.00
51579;DHT22;47998;53.242;6.386;2023-04-24T11:55:23;9.30;99.90
51579;DHT22;47998;53.242;6.386;2023-04-24T11:57:54;9.00;99.90
51579;DHT22;47998;53.242;6.386;2023-04-24T12:00:27;8.80;99.90
51579;DHT22;47998;53.242;6.386;2023-04-24T12:03:13;8.90;99.90
51579;DHT22;47998;53.242;6.386;2023-04-24T12:05:39;9.00;99.90
51579;DHT22;47998;53.242;6.386;2023-04-24T12:08:05;9.20;99.90
51579;DHT22;47998;53.242;6.386;2023-04-24T12:10:32;9.50;8.10
51579;DHT22;47998;53.242;6.386;2023-04-24T12:12:59;9.50;1.00
51579;DHT22;47998;53.242;6.386;2023-04-24T12:15:26;9.60;1.00
51579;DHT22;47998;53.242;6.386;2023-04-24T12:17:53;9.70;1.00
51579;DHT22;47998;53.242;6.386;2023-04-24T12:20:26;9.80;99.90
51579;DHT22;47998;53.242;6.386;2023-04-24T12:22:58;10.10;1.00
51579;DHT22;47998;53.242;6.386;2023-04-24T12:25:42;10.00;1.00
51579;DHT22;47998;53.242;6.386;2023-04-24T12:28:13;9.80;1.00
51579;DHT22;47998;53.242;6.386;2023-04-24T12:30:48;9.90;27.40
51579;DHT22;47998;53.242;6.386;2023-04-24T12:33:20;9.70;1.00
51579;DHT22;47998;53.242;6.386;2023-04-24T12:35:47;9.60;99.90
51579;DHT22;47998;53.242;6.386;2023-04-24T12:38:14;9.30;99.90
51579;DHT22;47998;53.242;6.386;2023-04-24T12:40:41;9.30;99.90
51579;DHT22;47998;53.242;6.386;2023-04-24T12:43:14;9.30;99.90
51579;DHT22;47998;53.242;6.386;2023-04-24T12:45:40;9.20;99.90
51579;DHT22;47998;53.242;6.386;2023-04-24T12:48:06;9.00;99.90
51579;DHT22;47998;53.242;6.386;2023-04-24T12:50:32;9.00;1.00
51579;DHT22;47998;53.242;6.386;2023-04-24T12:52:57;8.90;61.90
51579;DHT22;47998;53.242;6.386;2023-04-24T12:55:23;8.80;77.40
51579;DHT22;47998;53.242;6.386;2023-04-24T12:57:49;8.70;99.90
51579;DHT22;47998;53.242;6.386;2023-04-24T13:00:15;8.70;99.90
51579;DHT22;47998;53.242;6.386;2023-04-24T13:02:41;8.60;99.90
51579;DHT22;47998;53.242;6.386;2023-04-24T13:05:07;8.60;1.00
51579;DHT22;47998;53.242;6.386;2023-04-24T13:07:33;8.60;99.90
51579;DHT22;47998;53.242;6.386;2023-04-24T13:09:58;8.70;99.90
51579;DHT22;47998;53.242;6.386;2023-04-24T13:12:24;8.70;99.90
51579;DHT22;47998;53.242;6.386;2023-04-24T13:14:51;8.70;1.00
51579;DHT22;47998;53.242;6.386;2023-04-24T13:17:16;8.80;99.90
51579;DHT22;47998;53.242;6.386;2023-04-24T13:19:43;9.00;99.90
51579;DHT22;47998;53.242;6.386;2023-04-24T13:22:10;9.20;1.00
51579;DHT22;47998;53.242;6.386;2023-04-24T13:24:37;9.30;99.90
51579;DHT22;47998;53.242;6.386;2023-04-24T13:27:03;9.40;46.60
51579;DHT22;47998;53.242;6.386;2023-04-24T13:29:29;9.30;1.00
51579;DHT22;47998;53.242;6.386;2023-04-24T13:31:55;9.30;73.90
51579;DHT22;47998;53.242;6.386;2023-04-24T13:34:25;9.40;99.90
51579;DHT22;47998;53.242;6.386;2023-04-24T13:36:53;9.40;1.00
51579;DHT22;47998;53.242;6.386;2023-04-24T13:39:19;9.50;1.00
51579;DHT22;47998;53.242;6.386;2023-04-24T13:41:45;9.40;1.00
51579;DHT22;47998;53.242;6.386;2023-04-24T13:44:17;9.20;99.90
51579;DHT22;47998;53.242;6.386;2023-04-24T13:46:45;9.00;1.00
51579;DHT22;47998;53.242;6.386;2023-04-24T13:49:12;8.80;92.70
51579;DHT22;47998;53.242;6.386;2023-04-24T13:51:38;8.60;1.00
51579;DHT22;47998;53.242;6.386;2023-04-24T13:54:04;8.30;97.70
51579;DHT22;47998;53.242;6.386;2023-04-24T13:56:29;8.00;99.90
51579;DHT22;47998;53.242;6.386;2023-04-24T13:58:56;8.00;99.90
51579;DHT22;47998;53.242;6.386;2023-04-24T14:01:22;8.10;99.90
51579;DHT22;47998;53.242;6.386;2023-04-24T14:03:53;8.30;99.90
51579;DHT22;47998;53.242;6.386;2023-04-24T14:06:19;8.50;99.90
51579;DHT22;47998;53.242;6.386;2023-04-24T14:08:45;8.60;99.90
51579;DHT22;47998;53.242;6.386;2023-04-24T14:11:12;8.60;99.90
51579;DHT22;47998;53.242;6.386;2023-04-24T14:13:38;8.40;99.90
51579;DHT22;47998;53.242;6.386;2023-04-24T14:16:04;8.30;99.90
51579;DHT22;47998;53.242;6.386;2023-04-24T14:18:30;8.30;99.90
51579;DHT22;47998;53.242;6.386;2023-04-24T14:20:56;8.30;99.90
51579;DHT22;47998;53.242;6.386;2023-04-24T14:23:22;8.40;99.90
51579;DHT22;47998;53.242;6.386;2023-04-24T14:25:48;8.50;99.90
51579;DHT22;47998;53.242;6.386;2023-04-24T14:28:17;8.50;99.90
51579;DHT22;47998;53.242;6.386;2023-04-24T14:30:43;8.60;99.90
51579;DHT22;47998;53.242;6.386;2023-04-24T14:33:09;8.70;99.90
51579;DHT22;47998;53.242;6.386;2023-04-24T14:35:35;8.80;99.90
51579;DHT22;47998;53.242;6.386;2023-04-24T14:38:01;8.90;99.90
51579;DHT22;47998;53.242;6.386;2023-04-24T14:40:26;9.00;99.90
51579;DHT22;47998;53.242;6.386;2023-04-24T14:42:52;9.00;99.90
51579;DHT22;47998;53.242;6.386;2023-04-24T14:45:18;8.90;1.00
51579;DHT22;47998;53.242;6.386;2023-04-24T14:47:45;8.60;41.80
51579;DHT22;47998;53.242;6.386;2023-04-24T14:50:10;8.40;99.90
51579;DHT22;47998;53.242;6.386;2023-04-24T14:52:38;8.50;99.90
51579;DHT22;47998;53.242;6.386;2023-04-24T14:55:04;8.50;99.90
51579;DHT22;47998;53.242;6.386;2023-04-24T14:57:30;8.50;99.90
51579;DHT22;47998;53.242;6.386;2023-04-24T14:59:56;8.60;99.90
51579;DHT22;47998;53.242;6.386;2023-04-24T15:02:21;8.70;99.90
51579;DHT22;47998;53.242;6.386;2023-04-24T15:04:47;8.80;99.90
51579;DHT22;47998;53.242;6.386;2023-04-24T15:07:13;8.80;99.90
51579;DHT22;47998;53.242;6.386;2023-04-24T15:09:38;8.80;99.90
51579;DHT22;47998;53.242;6.386;2023-04-24T15:12:05;8.70;99.90
51579;DHT22;47998;53.242;6.386;2023-04-24T15:14:31;8.70;99.90
51579;DHT22;47998;53.242;6.386;2023-04-24T15:16:57;8.80;99.90
51579;DHT22;47998;53.242;6.386;2023-04-24T15:19:22;8.90;99.90
51579;DHT22;47998;53.242;6.386;2023-04-24T15:21:48;8.90;99.90
51579;DHT22;47998;53.242;6.386;2023-04-24T15:24:14;9.00;1.00
51579;DHT22;47998;53.242;6.386;2023-04-24T15:26:40;9.10;11.60
51579;DHT22;47998;53.242;6.386;2023-04-24T15:29:05;9.10;1.00
51579;DHT22;47998;53.242;6.386;2023-04-24T15:31:31;9.10;1.00
51579;DHT22;47998;53.242;6.386;2023-04-24T15:33:57;9.10;5.10
51579;DHT22;47998;53.242;6.386;2023-04-24T15:36:22;8.80;99.00
51579;DHT22;47998;53.242;6.386;2023-04-24T15:38:49;8.40;99.90
51579;DHT22;47998;53.242;6.386;2023-04-24T15:41:15;8.30;99.90
51579;DHT22;47998;53.242;6.386;2023-04-24T15:43:41;8.20;99.90
51579;DHT22;47998;53.242;6.386;2023-04-24T15:46:07;8.10;99.90
51579;DHT22;47998;53.242;6.386;2023-04-24T15:48:33;7.90;99.90
51579;DHT22;47998;53.242;6.386;2023-04-24T15:50:58;7.90;99.90
51579;DHT22;47998;53.242;6.386;2023-04-24T15:53:25;7.90;99.90
51579;DHT22;47998;53.242;6.386;2023-04-24T15:55:52;7.90;99.90
51579;DHT22;47998;53.242;6.386;2023-04-24T15:58:19;8.00;99.90